sensor_id;sensor_type;location;lat;lon;timestamp;P1;durP1;ratioP1;P2;durP2;ratioP2
54897;SDS011;40800;52.704;6.398;2022-09-09T00:00:54;10.02;;;8.52;;
54897;SDS011;40800;52.704;6.398;2022-09-09T00:03:30;9.30;;;8.32;;
54897;SDS011;40800;52.704;6.398;2022-09-09T00:09:21;9.05;;;8.00;;
54897;SDS011;40800;52.704;6.398;2022-09-09T00:11:51;11.20;;;8.77;;
54897;SDS011;40800;52.704;6.398;2022-09-09T00:14:38;9.95;;;8.95;;
54897;SDS011;40800;52.704;6.398;2022-09-09T00:19:50;10.27;;;8.40;;
54897;SDS011;40800;52.704;6.398;2022-09-09T00:22:25;10.95;;;7.82;;
54897;SDS011;40800;52.704;6.398;2022-09-09T00:24:56;9.02;;;8.07;;
54897;SDS011;40800;52.704;6.398;2022-09-09T00:27:47;9.85;;;8.68;;
54897;SDS011;40800;52.704;6.398;2022-09-09T00:32:44;10.18;;;9.18;;
54897;SDS011;40800;52.704;6.398;2022-09-09T00:35:25;10.13;;;9.13;;
54897;SDS011;40800;52.704;6.398;2022-09-09T00:37:56;12.45;;;9.05;;
54897;SDS011;40800;52.704;6.398;2022-09-09T00:40:32;9.60;;;8.65;;
54897;SDS011;40800;52.704;6.398;2022-09-09T00:48:50;9.15;;;8.23;;
54897;SDS011;40800;52.704;6.398;2022-09-09T00:51:30;10.35;;;8.93;;
54897;SDS011;40800;52.704;6.398;2022-09-09T00:57:02;9.65;;;8.65;;
54897;SDS011;40800;52.704;6.398;2022-09-09T01:05:07;10.82;;;9.73;;
54897;SDS011;40800;52.704;6.398;2022-09-09T01:07:38;10.98;;;9.88;;
54897;SDS011;40800;52.704;6.398;2022-09-09T01:10:36;11.10;;;9.98;;
54897;SDS011;40800;52.704;6.398;2022-09-09T01:13:01;11.52;;;10.18;;
54897;SDS011;40800;52.704;6.398;2022-09-09T01:15:33;10.77;;;9.77;;
54897;SDS011;40800;52.704;6.398;2022-09-09T01:23:38;10.65;;;9.63;;
54897;SDS011;40800;52.704;6.398;2022-09-09T01:28:54;10.93;;;9.80;;
54897;SDS011;40800;52.704;6.398;2022-09-09T01:31:31;10.80;;;9.02;;
54897;SDS011;40800;52.704;6.398;2022-09-09T01:34:01;10.02;;;8.95;;
54897;SDS011;40800;52.704;6.398;2022-09-09T01:36:35;10.70;;;8.75;;
54897;SDS011;40800;52.704;6.398;2022-09-09T01:39:07;10.20;;;9.05;;
54897;SDS011;40800;52.704;6.398;2022-09-09T01:41:33;11.10;;;9.68;;
54897;SDS011;40800;52.704;6.398;2022-09-09T01:43:58;11.07;;;9.27;;
54897;SDS011;40800;52.704;6.398;2022-09-09T01:46:24;13.38;;;9.15;;
54897;SDS011;40800;52.704;6.398;2022-09-09T01:48:50;10.45;;;9.45;;
54897;SDS011;40800;52.704;6.398;2022-09-09T01:51:18;9.70;;;8.80;;
54897;SDS011;40800;52.704;6.398;2022-09-09T01:53:44;9.77;;;8.80;;
54897;SDS011;40800;52.704;6.398;2022-09-09T01:56:58;11.23;;;10.13;;
54897;SDS011;40800;52.704;6.398;2022-09-09T02:02:08;9.90;;;8.93;;
54897;SDS011;40800;52.704;6.398;2022-09-09T02:04:41;11.25;;;10.25;;
54897;SDS011;40800;52.704;6.398;2022-09-09T02:10:09;12.07;;;10.27;;
54897;SDS011;40800;52.704;6.398;2022-09-09T02:12:36;10.75;;;9.65;;
54897;SDS011;40800;52.704;6.398;2022-09-09T02:15:08;11.70;;;10.57;;
54897;SDS011;40800;52.704;6.398;2022-09-09T02:18:03;11.48;;;10.27;;
54897;SDS011;40800;52.704;6.398;2022-09-09T02:20:32;11.23;;;10.15;;
54897;SDS011;40800;52.704;6.398;2022-09-09T02:22:59;11.43;;;10.35;;
54897;SDS011;40800;52.704;6.398;2022-09-09T02:25:28;10.63;;;9.57;;
54897;SDS011;40800;52.704;6.398;2022-09-09T02:27:56;11.15;;;10.05;;
54897;SDS011;40800;52.704;6.398;2022-09-09T02:30:26;11.88;;;10.27;;
54897;SDS011;40800;52.704;6.398;2022-09-09T02:32:54;11.57;;;9.88;;
54897;SDS011;40800;52.704;6.398;2022-09-09T02:35:23;11.15;;;9.93;;
54897;SDS011;40800;52.704;6.398;2022-09-09T02:37:50;10.80;;;9.80;;
54897;SDS011;40800;52.704;6.398;2022-09-09T02:40:18;11.05;;;10.00;;
54897;SDS011;40800;52.704;6.398;2022-09-09T02:42:45;10.95;;;9.95;;
54897;SDS011;40800;52.704;6.398;2022-09-09T02:45:12;11.20;;;9.88;;
54897;SDS011;40800;52.704;6.398;2022-09-09T02:50:33;11.77;;;10.52;;
54897;SDS011;40800;52.704;6.398;2022-09-09T02:53:21;11.52;;;10.38;;
54897;SDS011;40800;52.704;6.398;2022-09-09T02:56:06;11.77;;;10.68;;
54897;SDS011;40800;52.704;6.398;2022-09-09T02:58:38;12.48;;;11.27;;
54897;SDS011;40800;52.704;6.398;2022-09-09T03:01:05;13.13;;;11.40;;
54897;SDS011;40800;52.704;6.398;2022-09-09T03:03:30;12.15;;;10.95;;
54897;SDS011;40800;52.704;6.398;2022-09-09T03:05:57;12.32;;;11.10;;
54897;SDS011;40800;52.704;6.398;2022-09-09T03:08:22;15.20;;;12.05;;
54897;SDS011;40800;52.704;6.398;2022-09-09T03:10:48;11.75;;;10.55;;
54897;SDS011;40800;52.704;6.398;2022-09-09T03:13:14;12.15;;;10.90;;
54897;SDS011;40800;52.704;6.398;2022-09-09T03:15:40;11.77;;;10.77;;
54897;SDS011;40800;52.704;6.398;2022-09-09T03:18:06;11.63;;;10.57;;
54897;SDS011;40800;52.704;6.398;2022-09-09T03:20:32;11.32;;;10.20;;
54897;SDS011;40800;52.704;6.398;2022-09-09T03:22:59;11.30;;;10.20;;
54897;SDS011;40800;52.704;6.398;2022-09-09T03:25:25;11.68;;;10.65;;
54897;SDS011;40800;52.704;6.398;2022-09-09T03:27:51;11.40;;;10.27;;
54897;SDS011;40800;52.704;6.398;2022-09-09T03:30:23;11.35;;;10.25;;
54897;SDS011;40800;52.704;6.398;2022-09-09T03:32:51;12.05;;;10.85;;
54897;SDS011;40800;52.704;6.398;2022-09-09T03:35:17;13.00;;;10.70;;
54897;SDS011;40800;52.704;6.398;2022-09-09T03:37:43;10.50;;;9.60;;
54897;SDS011;40800;52.704;6.398;2022-09-09T03:40:09;10.98;;;9.98;;
54897;SDS011;40800;52.704;6.398;2022-09-09T03:42:36;10.45;;;9.60;;
54897;SDS011;40800;52.704;6.398;2022-09-09T03:45:05;11.43;;;10.37;;
54897;SDS011;40800;52.704;6.398;2022-09-09T03:47:34;12.40;;;10.30;;
54897;SDS011;40800;52.704;6.398;2022-09-09T03:49:59;12.25;;;11.02;;
54897;SDS011;40800;52.704;6.398;2022-09-09T03:52:25;11.60;;;10.40;;
54897;SDS011;40800;52.704;6.398;2022-09-09T03:54:51;11.75;;;10.68;;
54897;SDS011;40800;52.704;6.398;2022-09-09T03:57:18;12.10;;;10.85;;
54897;SDS011;40800;52.704;6.398;2022-09-09T03:59:44;12.63;;;11.33;;
54897;SDS011;40800;52.704;6.398;2022-09-09T04:02:09;13.23;;;11.98;;
54897;SDS011;40800;52.704;6.398;2022-09-09T04:04:35;14.07;;;12.48;;
54897;SDS011;40800;52.704;6.398;2022-09-09T04:07:00;13.20;;;11.80;;
54897;SDS011;40800;52.704;6.398;2022-09-09T04:09:26;12.77;;;11.57;;
54897;SDS011;40800;52.704;6.398;2022-09-09T04:11:52;13.35;;;12.02;;
54897;SDS011;40800;52.704;6.398;2022-09-09T04:14:18;16.02;;;14.07;;
54897;SDS011;40800;52.704;6.398;2022-09-09T04:16:44;15.53;;;13.93;;
54897;SDS011;40800;52.704;6.398;2022-09-09T04:19:10;13.85;;;12.45;;
54897;SDS011;40800;52.704;6.398;2022-09-09T04:21:38;13.80;;;12.43;;
54897;SDS011;40800;52.704;6.398;2022-09-09T04:24:09;13.68;;;12.25;;
54897;SDS011;40800;52.704;6.398;2022-09-09T04:26:35;13.63;;;12.30;;
54897;SDS011;40800;52.704;6.398;2022-09-09T04:29:02;14.00;;;12.75;;
54897;SDS011;40800;52.704;6.398;2022-09-09T04:31:28;13.82;;;12.50;;
54897;SDS011;40800;52.704;6.398;2022-09-09T04:33:54;14.15;;;12.73;;
54897;SDS011;40800;52.704;6.398;2022-09-09T04:36:20;14.45;;;12.43;;
54897;SDS011;40800;52.704;6.398;2022-09-09T04:38:46;13.20;;;12.00;;
54897;SDS011;40800;52.704;6.398;2022-09-09T04:41:13;17.17;;;13.23;;
54897;SDS011;40800;52.704;6.398;2022-09-09T04:43:40;15.10;;;12.88;;
54897;SDS011;40800;52.704;6.398;2022-09-09T04:46:06;13.82;;;12.48;;
54897;SDS011;40800;52.704;6.398;2022-09-09T04:48:31;17.05;;;13.05;;
54897;SDS011;40800;52.704;6.398;2022-09-09T04:50:58;13.15;;;11.75;;
54897;SDS011;40800;52.704;6.398;2022-09-09T04:53:26;13.32;;;11.98;;
54897;SDS011;40800;52.704;6.398;2022-09-09T04:56:05;13.15;;;12.05;;
54897;SDS011;40800;52.704;6.398;2022-09-09T04:58:36;13.30;;;12.10;;
54897;SDS011;40800;52.704;6.398;2022-09-09T05:01:03;13.38;;;11.90;;
54897;SDS011;40800;52.704;6.398;2022-09-09T05:03:29;15.00;;;13.55;;
54897;SDS011;40800;52.704;6.398;2022-09-09T05:06:01;15.50;;;13.73;;
54897;SDS011;40800;52.704;6.398;2022-09-09T05:08:29;13.65;;;12.35;;
54897;SDS011;40800;52.704;6.398;2022-09-09T05:10:54;13.70;;;12.27;;
54897;SDS011;40800;52.704;6.398;2022-09-09T05:13:20;13.50;;;12.10;;
54897;SDS011;40800;52.704;6.398;2022-09-09T05:15:52;13.70;;;12.40;;
54897;SDS011;40800;52.704;6.398;2022-09-09T05:18:19;14.57;;;13.27;;
54897;SDS011;40800;52.704;6.398;2022-09-09T05:20:45;13.70;;;12.40;;
54897;SDS011;40800;52.704;6.398;2022-09-09T05:23:10;15.60;;;12.25;;
54897;SDS011;40800;52.704;6.398;2022-09-09T05:25:37;13.85;;;12.32;;
54897;SDS011;40800;52.704;6.398;2022-09-09T05:28:02;13.88;;;12.45;;
54897;SDS011;40800;52.704;6.398;2022-09-09T05:30:28;13.20;;;11.82;;
54897;SDS011;40800;52.704;6.398;2022-09-09T05:32:55;14.27;;;12.77;;
54897;SDS011;40800;52.704;6.398;2022-09-09T05:35:21;14.02;;;12.63;;
54897;SDS011;40800;52.704;6.398;2022-09-09T05:37:48;15.45;;;13.85;;
54897;SDS011;40800;52.704;6.398;2022-09-09T05:40:14;15.13;;;13.40;;
54897;SDS011;40800;52.704;6.398;2022-09-09T05:42:40;14.63;;;13.07;;
54897;SDS011;40800;52.704;6.398;2022-09-09T05:45:06;14.70;;;13.20;;
54897;SDS011;40800;52.704;6.398;2022-09-09T05:49:58;13.63;;;12.32;;
54897;SDS011;40800;52.704;6.398;2022-09-09T05:52:24;14.68;;;13.07;;
54897;SDS011;40800;52.704;6.398;2022-09-09T05:54:51;15.40;;;13.07;;
54897;SDS011;40800;52.704;6.398;2022-09-09T05:57:17;14.82;;;13.23;;
54897;SDS011;40800;52.704;6.398;2022-09-09T06:02:09;14.57;;;13.05;;
54897;SDS011;40800;52.704;6.398;2022-09-09T06:04:35;14.90;;;13.07;;
54897;SDS011;40800;52.704;6.398;2022-09-09T06:07:01;14.98;;;13.43;;
54897;SDS011;40800;52.704;6.398;2022-09-09T06:09:26;17.13;;;13.10;;
54897;SDS011;40800;52.704;6.398;2022-09-09T06:11:52;14.40;;;13.00;;
54897;SDS011;40800;52.704;6.398;2022-09-09T06:14:19;13.82;;;12.35;;
54897;SDS011;40800;52.704;6.398;2022-09-09T06:16:45;13.80;;;12.50;;
54897;SDS011;40800;52.704;6.398;2022-09-09T06:19:11;15.30;;;12.63;;
54897;SDS011;40800;52.704;6.398;2022-09-09T06:21:37;12.32;;;11.23;;
54897;SDS011;40800;52.704;6.398;2022-09-09T06:24:04;12.50;;;11.40;;
54897;SDS011;40800;52.704;6.398;2022-09-09T06:26:34;12.63;;;11.32;;
54897;SDS011;40800;52.704;6.398;2022-09-09T06:29:01;13.15;;;11.82;;
54897;SDS011;40800;52.704;6.398;2022-09-09T06:31:32;12.90;;;11.70;;
54897;SDS011;40800;52.704;6.398;2022-09-09T06:33:59;12.40;;;11.20;;
54897;SDS011;40800;52.704;6.398;2022-09-09T06:36:29;13.02;;;11.27;;
54897;SDS011;40800;52.704;6.398;2022-09-09T06:38:57;13.18;;;11.90;;
54897;SDS011;40800;52.704;6.398;2022-09-09T06:41:25;15.10;;;11.70;;
54897;SDS011;40800;52.704;6.398;2022-09-09T06:43:52;16.67;;;10.85;;
54897;SDS011;40800;52.704;6.398;2022-09-09T06:46:19;12.40;;;11.18;;
54897;SDS011;40800;52.704;6.398;2022-09-09T06:48:52;13.30;;;9.93;;
54897;SDS011;40800;52.704;6.398;2022-09-09T06:51:24;12.25;;;10.70;;
54897;SDS011;40800;52.704;6.398;2022-09-09T06:53:53;10.93;;;9.80;;
54897;SDS011;40800;52.704;6.398;2022-09-09T06:58:48;11.18;;;10.07;;
54897;SDS011;40800;52.704;6.398;2022-09-09T07:01:22;11.88;;;10.82;;
54897;SDS011;40800;52.704;6.398;2022-09-09T07:03:51;15.05;;;11.10;;
54897;SDS011;40800;52.704;6.398;2022-09-09T07:06:19;11.75;;;10.60;;
54897;SDS011;40800;52.704;6.398;2022-09-09T07:08:59;11.18;;;9.98;;
54897;SDS011;40800;52.704;6.398;2022-09-09T07:11:37;12.40;;;11.30;;
54897;SDS011;40800;52.704;6.398;2022-09-09T07:14:06;11.98;;;10.70;;
54897;SDS011;40800;52.704;6.398;2022-09-09T07:16:32;11.45;;;10.38;;
54897;SDS011;40800;52.704;6.398;2022-09-09T07:19:02;11.35;;;10.07;;
54897;SDS011;40800;52.704;6.398;2022-09-09T07:21:29;12.13;;;10.93;;
54897;SDS011;40800;52.704;6.398;2022-09-09T07:23:55;11.35;;;10.18;;
54897;SDS011;40800;52.704;6.398;2022-09-09T07:26:22;11.90;;;10.68;;
54897;SDS011;40800;52.704;6.398;2022-09-09T07:28:49;12.02;;;10.85;;
54897;SDS011;40800;52.704;6.398;2022-09-09T07:31:16;12.10;;;10.90;;
54897;SDS011;40800;52.704;6.398;2022-09-09T07:33:43;12.25;;;10.98;;
54897;SDS011;40800;52.704;6.398;2022-09-09T07:36:20;11.63;;;10.48;;
54897;SDS011;40800;52.704;6.398;2022-09-09T07:38:55;12.65;;;10.40;;
54897;SDS011;40800;52.704;6.398;2022-09-09T07:41:31;15.50;;;10.35;;
54897;SDS011;40800;52.704;6.398;2022-09-09T07:44:05;12.57;;;9.60;;
54897;SDS011;40800;52.704;6.398;2022-09-09T07:46:32;12.88;;;10.13;;
54897;SDS011;40800;52.704;6.398;2022-09-09T07:48:59;11.20;;;9.27;;
54897;SDS011;40800;52.704;6.398;2022-09-09T07:51:27;13.82;;;9.68;;
54897;SDS011;40800;52.704;6.398;2022-09-09T07:53:58;19.23;;;10.63;;
54897;SDS011;40800;52.704;6.398;2022-09-09T07:56:27;14.00;;;10.38;;
54897;SDS011;40800;52.704;6.398;2022-09-09T07:58:54;11.25;;;9.70;;
54897;SDS011;40800;52.704;6.398;2022-09-09T08:01:23;13.88;;;9.45;;
54897;SDS011;40800;52.704;6.398;2022-09-09T08:03:53;11.95;;;9.07;;
54897;SDS011;40800;52.704;6.398;2022-09-09T08:06:20;12.63;;;9.32;;
54897;SDS011;40800;52.704;6.398;2022-09-09T08:08:49;17.40;;;9.67;;
54897;SDS011;40800;52.704;6.398;2022-09-09T08:11:15;12.10;;;8.23;;
54897;SDS011;40800;52.704;6.398;2022-09-09T08:13:42;10.93;;;8.40;;
54897;SDS011;40800;52.704;6.398;2022-09-09T08:16:13;12.63;;;7.75;;
54897;SDS011;40800;52.704;6.398;2022-09-09T08:18:40;11.18;;;8.70;;
54897;SDS011;40800;52.704;6.398;2022-09-09T08:21:07;14.37;;;8.93;;
54897;SDS011;40800;52.704;6.398;2022-09-09T08:23:41;10.13;;;7.53;;
54897;SDS011;40800;52.704;6.398;2022-09-09T08:26:12;9.88;;;8.02;;
54897;SDS011;40800;52.704;6.398;2022-09-09T08:28:40;10.93;;;8.15;;
54897;SDS011;40800;52.704;6.398;2022-09-09T08:31:07;11.35;;;7.70;;
54897;SDS011;40800;52.704;6.398;2022-09-09T08:33:38;12.50;;;7.57;;
54897;SDS011;40800;52.704;6.398;2022-09-09T08:36:05;14.38;;;8.23;;
54897;SDS011;40800;52.704;6.398;2022-09-09T08:38:31;11.50;;;7.20;;
54897;SDS011;40800;52.704;6.398;2022-09-09T08:41:12;12.30;;;7.13;;
54897;SDS011;40800;52.704;6.398;2022-09-09T08:52:26;10.70;;;7.22;;
54897;SDS011;40800;52.704;6.398;2022-09-09T08:58:02;11.43;;;6.85;;
54897;SDS011;40800;52.704;6.398;2022-09-09T09:11:26;10.40;;;6.85;;
54897;SDS011;40800;52.704;6.398;2022-09-09T09:14:08;10.95;;;6.95;;
54897;SDS011;40800;52.704;6.398;2022-09-09T09:19:28;8.55;;;5.28;;
54897;SDS011;40800;52.704;6.398;2022-09-09T09:24:27;12.25;;;5.07;;
54897;SDS011;40800;52.704;6.398;2022-09-09T09:27:07;8.75;;;5.25;;
54897;SDS011;40800;52.704;6.398;2022-09-09T09:29:56;7.53;;;4.28;;
54897;SDS011;40800;52.704;6.398;2022-09-09T09:32:24;10.35;;;4.93;;
54897;SDS011;40800;52.704;6.398;2022-09-09T09:34:56;9.98;;;4.55;;
54897;SDS011;40800;52.704;6.398;2022-09-09T09:37:27;10.45;;;4.80;;
54897;SDS011;40800;52.704;6.398;2022-09-09T09:39:55;11.57;;;4.90;;
54897;SDS011;40800;52.704;6.398;2022-09-09T09:42:21;7.10;;;4.65;;
54897;SDS011;40800;52.704;6.398;2022-09-09T09:44:47;10.10;;;4.75;;
54897;SDS011;40800;52.704;6.398;2022-09-09T09:47:17;8.98;;;4.50;;
54897;SDS011;40800;52.704;6.398;2022-09-09T09:49:51;9.77;;;4.28;;
54897;SDS011;40800;52.704;6.398;2022-09-09T09:52:24;8.18;;;4.10;;
54897;SDS011;40800;52.704;6.398;2022-09-09T09:54:53;9.27;;;4.35;;
54897;SDS011;40800;52.704;6.398;2022-09-09T09:57:24;8.23;;;4.47;;
54897;SDS011;40800;52.704;6.398;2022-09-09T10:00:01;10.00;;;5.07;;
54897;SDS011;40800;52.704;6.398;2022-09-09T10:02:40;8.90;;;4.13;;
54897;SDS011;40800;52.704;6.398;2022-09-09T10:05:24;7.47;;;4.57;;
54897;SDS011;40800;52.704;6.398;2022-09-09T10:08:14;8.30;;;4.32;;
54897;SDS011;40800;52.704;6.398;2022-09-09T10:16:25;9.55;;;3.92;;
54897;SDS011;40800;52.704;6.398;2022-09-09T10:19:16;11.13;;;4.15;;
54897;SDS011;40800;52.704;6.398;2022-09-09T10:27:27;8.95;;;3.72;;
54897;SDS011;40800;52.704;6.398;2022-09-09T10:39:11;9.45;;;3.83;;
54897;SDS011;40800;52.704;6.398;2022-09-09T10:55:39;9.55;;;3.70;;
54897;SDS011;40800;52.704;6.398;2022-09-09T10:58:10;9.23;;;3.65;;
54897;SDS011;40800;52.704;6.398;2022-09-09T11:00:50;8.15;;;3.90;;
54897;SDS011;40800;52.704;6.398;2022-09-09T11:03:20;7.22;;;3.38;;
54897;SDS011;40800;52.704;6.398;2022-09-09T11:05:51;10.88;;;3.80;;
54897;SDS011;40800;52.704;6.398;2022-09-09T11:08:22;8.10;;;4.10;;
54897;SDS011;40800;52.704;6.398;2022-09-09T11:16:28;8.50;;;3.90;;
54897;SDS011;40800;52.704;6.398;2022-09-09T11:19:38;8.93;;;3.60;;
54897;SDS011;40800;52.704;6.398;2022-09-09T11:22:01;8.82;;;3.65;;
54897;SDS011;40800;52.704;6.398;2022-09-09T11:24:37;10.93;;;4.18;;
54897;SDS011;40800;52.704;6.398;2022-09-09T11:27:13;6.50;;;3.80;;
54897;SDS011;40800;52.704;6.398;2022-09-09T11:30:13;9.00;;;3.75;;
54897;SDS011;40800;52.704;6.398;2022-09-09T11:41:09;6.82;;;3.30;;
54897;SDS011;40800;52.704;6.398;2022-09-09T11:43:48;8.60;;;3.60;;
54897;SDS011;40800;52.704;6.398;2022-09-09T11:46:17;8.90;;;4.43;;
54897;SDS011;40800;52.704;6.398;2022-09-09T11:49:00;8.63;;;4.00;;
54897;SDS011;40800;52.704;6.398;2022-09-09T11:51:28;8.77;;;3.65;;
54897;SDS011;40800;52.704;6.398;2022-09-09T11:53:59;9.15;;;3.95;;
54897;SDS011;40800;52.704;6.398;2022-09-09T11:56:34;10.93;;;3.38;;
54897;SDS011;40800;52.704;6.398;2022-09-09T12:04:26;6.35;;;3.00;;
54897;SDS011;40800;52.704;6.398;2022-09-09T12:17:26;7.35;;;2.60;;
54897;SDS011;40800;52.704;6.398;2022-09-09T12:20:06;6.38;;;2.70;;
54897;SDS011;40800;52.704;6.398;2022-09-09T12:28:08;5.07;;;2.70;;
54897;SDS011;40800;52.704;6.398;2022-09-09T12:30:54;9.48;;;2.83;;
54897;SDS011;40800;52.704;6.398;2022-09-09T12:33:42;9.35;;;2.92;;
54897;SDS011;40800;52.704;6.398;2022-09-09T12:36:21;7.20;;;2.58;;
54897;SDS011;40800;52.704;6.398;2022-09-09T12:38:49;5.38;;;2.33;;
54897;SDS011;40800;52.704;6.398;2022-09-09T12:41:19;6.47;;;2.50;;
54897;SDS011;40800;52.704;6.398;2022-09-09T12:43:44;5.03;;;2.17;;
54897;SDS011;40800;52.704;6.398;2022-09-09T12:46:13;7.15;;;2.85;;
54897;SDS011;40800;52.704;6.398;2022-09-09T12:48:47;6.50;;;1.92;;
54897;SDS011;40800;52.704;6.398;2022-09-09T12:51:21;5.97;;;2.57;;
54897;SDS011;40800;52.704;6.398;2022-09-09T12:53:51;6.25;;;2.60;;
54897;SDS011;40800;52.704;6.398;2022-09-09T12:56:24;6.18;;;2.40;;
54897;SDS011;40800;52.704;6.398;2022-09-09T12:58:52;6.22;;;2.40;;
54897;SDS011;40800;52.704;6.398;2022-09-09T13:01:27;6.82;;;2.20;;
54897;SDS011;40800;52.704;6.398;2022-09-09T13:03:54;8.60;;;2.67;;
54897;SDS011;40800;52.704;6.398;2022-09-09T13:11:19;6.00;;;2.10;;
54897;SDS011;40800;52.704;6.398;2022-09-09T13:13:56;6.43;;;2.60;;
54897;SDS011;40800;52.704;6.398;2022-09-09T13:18:51;6.10;;;2.17;;
54897;SDS011;40800;52.704;6.398;2022-09-09T13:21:17;6.27;;;2.30;;
54897;SDS011;40800;52.704;6.398;2022-09-09T13:23:48;3.78;;;2.70;;
54897;SDS011;40800;52.704;6.398;2022-09-09T13:26:22;3.97;;;3.17;;
54897;SDS011;40800;52.704;6.398;2022-09-09T13:28:50;269.05;;;24.33;;
54897;SDS011;40800;52.704;6.398;2022-09-09T13:31:22;4.68;;;3.90;;
54897;SDS011;40800;52.704;6.398;2022-09-09T13:33:58;4.85;;;3.90;;
54897;SDS011;40800;52.704;6.398;2022-09-09T13:36:32;7.25;;;4.47;;
54897;SDS011;40800;52.704;6.398;2022-09-09T13:39:00;7.63;;;4.68;;
54897;SDS011;40800;52.704;6.398;2022-09-09T13:41:32;7.90;;;4.60;;
54897;SDS011;40800;52.704;6.398;2022-09-09T13:44:00;5.88;;;4.85;;
54897;SDS011;40800;52.704;6.398;2022-09-09T13:46:31;7.80;;;5.25;;
54897;SDS011;40800;52.704;6.398;2022-09-09T13:49:22;8.50;;;4.53;;
54897;SDS011;40800;52.704;6.398;2022-09-09T13:51:49;6.13;;;3.88;;
54897;SDS011;40800;52.704;6.398;2022-09-09T13:54:18;4.45;;;3.25;;
54897;SDS011;40800;52.704;6.398;2022-09-09T13:56:45;4.75;;;3.33;;
54897;SDS011;40800;52.704;6.398;2022-09-09T13:59:15;4.90;;;2.47;;
54897;SDS011;40800;52.704;6.398;2022-09-09T14:01:44;7.55;;;2.75;;
54897;SDS011;40800;52.704;6.398;2022-09-09T14:04:10;6.43;;;2.80;;
54897;SDS011;40800;52.704;6.398;2022-09-09T14:06:37;3.80;;;2.47;;
54897;SDS011;40800;52.704;6.398;2022-09-09T14:09:08;3.25;;;2.15;;
54897;SDS011;40800;52.704;6.398;2022-09-09T14:11:36;5.70;;;2.20;;
54897;SDS011;40800;52.704;6.398;2022-09-09T14:14:02;4.53;;;2.03;;
54897;SDS011;40800;52.704;6.398;2022-09-09T14:16:28;4.73;;;2.30;;
54897;SDS011;40800;52.704;6.398;2022-09-09T14:18:54;7.35;;;2.30;;
54897;SDS011;40800;52.704;6.398;2022-09-09T14:21:24;5.05;;;2.40;;
54897;SDS011;40800;52.704;6.398;2022-09-09T14:23:51;3.35;;;2.00;;
54897;SDS011;40800;52.704;6.398;2022-09-09T14:28:44;4.85;;;2.30;;
54897;SDS011;40800;52.704;6.398;2022-09-09T14:33:38;4.13;;;2.20;;
54897;SDS011;40800;52.704;6.398;2022-09-09T14:36:04;4.27;;;2.10;;
54897;SDS011;40800;52.704;6.398;2022-09-09T14:38:34;4.90;;;2.35;;
54897;SDS011;40800;52.704;6.398;2022-09-09T14:41:13;4.28;;;2.10;;
54897;SDS011;40800;52.704;6.398;2022-09-09T14:43:41;5.78;;;2.60;;
54897;SDS011;40800;52.704;6.398;2022-09-09T14:46:08;3.80;;;2.47;;
54897;SDS011;40800;52.704;6.398;2022-09-09T14:48:35;4.28;;;2.20;;
54897;SDS011;40800;52.704;6.398;2022-09-09T14:51:08;5.03;;;2.45;;
54897;SDS011;40800;52.704;6.398;2022-09-09T14:53:39;5.93;;;2.80;;
54897;SDS011;40800;52.704;6.398;2022-09-09T14:56:08;3.83;;;2.40;;
54897;SDS011;40800;52.704;6.398;2022-09-09T14:58:35;7.78;;;2.60;;
54897;SDS011;40800;52.704;6.398;2022-09-09T15:03:32;5.68;;;2.30;;
54897;SDS011;40800;52.704;6.398;2022-09-09T15:06:04;5.82;;;2.40;;
54897;SDS011;40800;52.704;6.398;2022-09-09T15:08:37;10.52;;;2.63;;
54897;SDS011;40800;52.704;6.398;2022-09-09T15:11:04;6.05;;;2.63;;
54897;SDS011;40800;52.704;6.398;2022-09-09T15:13:32;4.47;;;2.22;;
54897;SDS011;40800;52.704;6.398;2022-09-09T15:16:06;5.53;;;2.50;;
54897;SDS011;40800;52.704;6.398;2022-09-09T15:18:33;4.25;;;2.13;;
54897;SDS011;40800;52.704;6.398;2022-09-09T15:20:59;5.18;;;2.42;;
54897;SDS011;40800;52.704;6.398;2022-09-09T15:23:26;5.60;;;2.40;;
54897;SDS011;40800;52.704;6.398;2022-09-09T15:25:55;5.60;;;2.70;;
54897;SDS011;40800;52.704;6.398;2022-09-09T15:28:21;4.65;;;2.65;;
54897;SDS011;40800;52.704;6.398;2022-09-09T15:30:48;6.97;;;3.00;;
54897;SDS011;40800;52.704;6.398;2022-09-09T15:33:14;4.38;;;2.90;;
54897;SDS011;40800;52.704;6.398;2022-09-09T15:35:41;4.87;;;3.10;;
54897;SDS011;40800;52.704;6.398;2022-09-09T15:38:06;12.30;;;3.45;;
54897;SDS011;40800;52.704;6.398;2022-09-09T15:40:32;12.00;;;3.47;;
54897;SDS011;40800;52.704;6.398;2022-09-09T15:42:58;7.95;;;3.80;;
54897;SDS011;40800;52.704;6.398;2022-09-09T15:45:24;4.22;;;3.40;;
54897;SDS011;40800;52.704;6.398;2022-09-09T15:47:50;5.85;;;3.13;;
54897;SDS011;40800;52.704;6.398;2022-09-09T15:50:15;6.28;;;3.30;;
54897;SDS011;40800;52.704;6.398;2022-09-09T15:52:41;5.93;;;3.30;;
54897;SDS011;40800;52.704;6.398;2022-09-09T15:55:10;5.32;;;3.20;;
54897;SDS011;40800;52.704;6.398;2022-09-09T15:57:35;6.60;;;3.60;;
54897;SDS011;40800;52.704;6.398;2022-09-09T16:00:02;4.88;;;3.55;;
54897;SDS011;40800;52.704;6.398;2022-09-09T16:02:29;4.60;;;3.10;;
54897;SDS011;40800;52.704;6.398;2022-09-09T16:04:55;8.75;;;3.30;;
54897;SDS011;40800;52.704;6.398;2022-09-09T16:07:22;6.60;;;3.47;;
54897;SDS011;40800;52.704;6.398;2022-09-09T16:09:48;6.68;;;3.40;;
54897;SDS011;40800;52.704;6.398;2022-09-09T16:12:16;5.18;;;3.05;;
54897;SDS011;40800;52.704;6.398;2022-09-09T16:14:42;8.02;;;3.15;;
54897;SDS011;40800;52.704;6.398;2022-09-09T16:17:08;3.97;;;2.70;;
54897;SDS011;40800;52.704;6.398;2022-09-09T16:19:33;7.32;;;3.05;;
54897;SDS011;40800;52.704;6.398;2022-09-09T16:22:00;5.23;;;2.93;;
54897;SDS011;40800;52.704;6.398;2022-09-09T16:24:26;6.93;;;3.33;;
54897;SDS011;40800;52.704;6.398;2022-09-09T16:26:52;4.88;;;3.05;;
54897;SDS011;40800;52.704;6.398;2022-09-09T16:29:19;5.60;;;3.15;;
54897;SDS011;40800;52.704;6.398;2022-09-09T16:31:47;5.03;;;2.88;;
54897;SDS011;40800;52.704;6.398;2022-09-09T16:34:13;6.57;;;3.10;;
54897;SDS011;40800;52.704;6.398;2022-09-09T16:36:41;6.03;;;2.92;;
54897;SDS011;40800;52.704;6.398;2022-09-09T16:44:03;6.68;;;3.30;;
54897;SDS011;40800;52.704;6.398;2022-09-09T16:46:32;7.07;;;3.22;;
54897;SDS011;40800;52.704;6.398;2022-09-09T16:49:00;4.15;;;2.67;;
54897;SDS011;40800;52.704;6.398;2022-09-09T16:51:31;5.03;;;2.65;;
54897;SDS011;40800;52.704;6.398;2022-09-09T16:54:07;5.32;;;2.60;;
54897;SDS011;40800;52.704;6.398;2022-09-09T16:59:07;4.78;;;2.80;;
54897;SDS011;40800;52.704;6.398;2022-09-09T17:01:36;5.15;;;3.05;;
54897;SDS011;40800;52.704;6.398;2022-09-09T17:04:06;4.85;;;2.80;;
54897;SDS011;40800;52.704;6.398;2022-09-09T17:06:34;5.78;;;3.05;;
54897;SDS011;40800;52.704;6.398;2022-09-09T17:09:07;7.28;;;3.25;;
54897;SDS011;40800;52.704;6.398;2022-09-09T17:11:34;6.50;;;3.35;;
54897;SDS011;40800;52.704;6.398;2022-09-09T17:14:02;5.20;;;3.30;;
54897;SDS011;40800;52.704;6.398;2022-09-09T17:16:29;6.47;;;3.03;;
54897;SDS011;40800;52.704;6.398;2022-09-09T17:18:56;5.88;;;3.40;;
54897;SDS011;40800;52.704;6.398;2022-09-09T17:21:24;4.68;;;3.20;;
54897;SDS011;40800;52.704;6.398;2022-09-09T17:23:50;5.53;;;3.42;;
54897;SDS011;40800;52.704;6.398;2022-09-09T17:26:18;4.47;;;3.03;;
54897;SDS011;40800;52.704;6.398;2022-09-09T17:28:46;6.20;;;3.50;;
54897;SDS011;40800;52.704;6.398;2022-09-09T17:31:13;5.30;;;3.20;;
54897;SDS011;40800;52.704;6.398;2022-09-09T17:33:41;8.30;;;3.83;;
54897;SDS011;40800;52.704;6.398;2022-09-09T17:36:09;5.30;;;3.50;;
54897;SDS011;40800;52.704;6.398;2022-09-09T17:38:37;6.45;;;3.50;;